createdAt,value
2019-01-23T00:02:34.719Z,41.23
2019-01-23T00:07:42.616Z,37.30
2019-01-23T00:12:49.143Z,36.27
2019-01-23T00:17:55.142Z,36.87
2019-01-23T00:23:01.878Z,37.70
2019-01-23T00:28:07.477Z,39.50
2019-01-23T00:33:13.955Z,40.00
2019-01-23T00:38:20.420Z,36.70
2019-01-23T00:43:26.792Z,39.33
2019-01-23T00:48:34.182Z,40.47
2019-01-23T00:53:41.185Z,40.50
2019-01-23T00:58:49.253Z,42.13
2019-01-23T01:03:56.048Z,37.77
2019-01-23T01:09:01.745Z,38.23
2019-01-23T01:14:07.815Z,42.67
2019-01-23T01:19:13.891Z,40.03
2019-01-23T01:24:20.320Z,39.13
2019-01-23T01:29:26.217Z,44.03
2019-01-23T01:34:32.665Z,40.43
2019-01-23T01:39:38.660Z,39.20
2019-01-23T01:44:44.512Z,38.97
2019-01-23T01:49:49.155Z,37.07
2019-01-23T01:54:57.431Z,40.97
2019-01-23T02:00:02.379Z,40.57
2019-01-23T02:05:07.392Z,41.87
2019-01-23T02:10:14.412Z,37.00
2019-01-23T02:15:20.201Z,40.23
2019-01-23T02:20:27.807Z,35.17
2019-01-23T02:25:34.091Z,36.87
2019-01-23T02:30:41.819Z,34.50
2019-01-23T02:35:48.303Z,37.87
2019-01-23T02:40:54.757Z,35.97
2019-01-23T02:46:01.366Z,36.43
2019-01-23T02:51:08.528Z,32.53
2019-01-23T02:56:17.306Z,34.63
2019-01-23T03:01:23.068Z,33.43
2019-01-23T03:06:28.574Z,37.37
2019-01-23T03:11:35.625Z,34.43
2019-01-23T03:16:41.703Z,34.53
2019-01-23T03:21:47.516Z,33.23
2019-01-23T03:26:54.077Z,40.03
2019-01-23T03:32:00.131Z,34.67
2019-01-23T03:37:06.318Z,39.23
2019-01-23T03:42:12.238Z,35.53
2019-01-23T03:47:18.678Z,33.27
2019-01-23T03:52:24.750Z,35.00
2019-01-23T03:57:29.955Z,37.10
2019-01-23T04:02:35.930Z,35.90
2019-01-23T04:07:41.565Z,36.23
2019-01-23T04:12:47.727Z,38.93
2019-01-23T04:17:53.104Z,33.17
2019-01-23T04:22:59.337Z,34.57
2019-01-23T04:28:04.820Z,37.13
2019-01-23T04:33:10.339Z,35.37
2019-01-23T04:38:16.282Z,36.33
2019-01-23T04:43:21.734Z,33.87
2019-01-23T04:48:27.357Z,33.87
2019-01-23T04:53:36.503Z,34.57
2019-01-23T04:58:42.448Z,38.60
2019-01-23T05:03:47.627Z,33.67
2019-01-23T05:08:55.043Z,32.13
2019-01-23T05:14:00.971Z,34.73
2019-01-23T05:19:08.547Z,32.53
2019-01-23T05:24:15.400Z,36.00
2019-01-23T05:29:23.938Z,35.87
2019-01-23T05:34:32.291Z,35.80
2019-01-23T05:39:37.625Z,35.10
2019-01-23T05:44:45.601Z,37.43
2019-01-23T05:49:53.098Z,36.50
2019-01-23T05:54:59.243Z,35.53
2019-01-23T06:00:05.356Z,36.57
2019-01-23T06:05:11.912Z,36.30
2019-01-23T06:10:18.016Z,35.33
2019-01-23T06:15:24.566Z,35.70
2019-01-23T06:20:30.024Z,34.07
2019-01-23T06:25:36.345Z,35.30
2019-01-23T06:30:43.539Z,35.97
2019-01-23T06:35:49.720Z,35.40
2019-01-23T06:40:54.961Z,37.50
2019-01-23T06:46:01.688Z,37.40
2019-01-23T06:51:07.177Z,39.60
2019-01-23T06:56:12.575Z,41.37
2019-01-23T07:01:18.534Z,35.57
2019-01-23T07:06:23.866Z,41.30
2019-01-23T07:11:29.980Z,36.30
2019-01-23T07:16:37.447Z,39.37
2019-01-23T07:21:42.930Z,40.43
2019-01-23T07:26:49.148Z,37.20
2019-01-23T07:31:54.521Z,38.87
2019-01-23T07:37:00.064Z,37.33
2019-01-23T07:42:05.849Z,45.40
2019-01-23T07:47:10.939Z,42.43
2019-01-23T07:52:16.473Z,44.63
2019-01-23T07:57:22.002Z,52.10
2019-01-23T08:02:28.188Z,43.97
2019-01-23T08:07:34.057Z,45.17
2019-01-23T08:12:39.893Z,48.17
2019-01-23T08:17:47.381Z,43.87
2019-01-23T08:22:53.021Z,47.07
2019-01-23T08:27:59.151Z,43.33
2019-01-23T08:33:06.506Z,45.23
2019-01-23T08:38:11.367Z,45.53
2019-01-23T08:43:17.587Z,48.20
2019-01-23T08:48:23.555Z,39.73
2019-01-23T08:53:29.297Z,42.17
2019-01-23T08:58:34.761Z,46.27
2019-01-23T09:03:41.709Z,46.27
2019-01-23T09:08:46.373Z,41.83
2019-01-23T09:13:52.038Z,42.40
2019-01-23T09:18:58.899Z,44.73
2019-01-23T09:24:04.788Z,43.40
2019-01-23T09:29:10.849Z,43.40
2019-01-23T09:35:06.561Z,42.70
2019-01-23T09:40:58.968Z,39.10
2019-01-23T09:46:25.158Z,47.93
2019-01-23T09:52:30.738Z,42.60
2019-01-23T09:57:38.603Z,40.17
2019-01-23T10:02:46.681Z,47.10
2019-01-23T10:07:53.883Z,43.20
2019-01-23T10:13:00.818Z,40.50
2019-01-23T10:18:07.318Z,44.53
2019-01-23T10:23:15.476Z,44.07
2019-01-23T10:28:22.441Z,42.70
2019-01-23T10:33:28.681Z,40.73
2019-01-23T10:38:36.462Z,40.13
2019-01-23T10:43:42.142Z,39.80
2019-01-23T10:48:47.980Z,41.33
2019-01-23T10:53:54.113Z,38.20
2019-01-23T10:59:01.062Z,39.80
2019-01-23T11:04:09.005Z,40.57
2019-01-23T11:09:15.747Z,40.77
2019-01-23T11:14:22.027Z,43.40
2019-01-23T11:19:29.632Z,41.13
2019-01-23T11:24:35.421Z,47.17
2019-01-23T11:29:41.359Z,42.00
2019-01-23T11:34:47.674Z,42.20
2019-01-23T11:39:54.549Z,44.07
2019-01-23T11:45:01.585Z,40.33
2019-01-23T11:50:12.940Z,38.97
2019-01-23T11:55:18.949Z,41.50
2019-01-23T12:00:27.166Z,42.13
2019-01-23T12:05:33.021Z,46.70
2019-01-23T12:10:38.630Z,39.93
2019-01-23T12:15:46.305Z,39.17
2019-01-23T12:20:56.213Z,40.23
2019-01-23T12:26:01.910Z,37.63
2019-01-23T12:31:07.560Z,39.07
2019-01-23T12:36:14.630Z,34.27
2019-01-23T12:41:20.977Z,38.23
2019-01-23T12:46:27.437Z,37.60
2019-01-23T12:51:34.617Z,41.20
2019-01-23T12:56:41.054Z,38.93
2019-01-23T13:01:47.100Z,39.13
2019-01-23T13:06:53.681Z,37.93
2019-01-23T13:12:00.752Z,40.67
2019-01-23T13:17:05.936Z,39.53
2019-01-23T13:22:11.927Z,39.90
2019-01-23T13:27:18.206Z,40.33
2019-01-23T13:32:26.315Z,41.70
2019-01-23T13:37:32.432Z,38.10
2019-01-23T13:42:39.264Z,39.30
2019-01-23T13:47:51.501Z,39.77
2019-01-23T13:52:57.145Z,39.53
2019-01-23T13:58:02.708Z,40.10
2019-01-23T14:03:08.469Z,39.83
2019-01-23T14:08:14.712Z,39.40
2019-01-23T14:13:21.041Z,41.50
2019-01-23T14:18:27.445Z,39.57
2019-01-23T14:23:33.324Z,41.73
2019-01-23T14:28:39.695Z,36.87
2019-01-23T14:33:46.017Z,43.70
2019-01-23T14:38:52.311Z,40.17
2019-01-23T14:43:59.714Z,40.03
2019-01-23T14:49:05.497Z,42.83
2019-01-23T14:54:12.353Z,39.80
2019-01-23T14:59:19.581Z,41.43
2019-01-23T15:04:26.022Z,39.40
2019-01-23T15:09:32.233Z,44.00
2019-01-23T15:14:37.711Z,43.20
2019-01-23T15:19:43.185Z,42.00
2019-01-23T15:24:48.943Z,40.40
2019-01-23T15:29:55.888Z,47.53
2019-01-23T15:35:01.542Z,45.67
2019-01-23T15:40:08.451Z,43.77
2019-01-23T15:45:15.412Z,45.40
2019-01-23T15:50:23.501Z,46.63
2019-01-23T15:55:34.396Z,49.47
2019-01-23T16:00:40.077Z,44.90
2019-01-23T16:05:46.835Z,43.40
2019-01-23T16:10:53.298Z,41.30
2019-01-23T16:15:58.794Z,40.23
2019-01-23T16:21:04.395Z,41.27
2019-01-23T16:26:10.130Z,43.97
2019-01-23T16:31:15.705Z,45.03
2019-01-23T16:36:22.210Z,41.43
2019-01-23T16:41:30.242Z,42.63
2019-01-23T16:46:35.743Z,46.13
2019-01-23T16:51:40.945Z,44.77
2019-01-23T16:56:47.652Z,44.37
2019-01-23T17:01:53.897Z,43.60
2019-01-23T17:06:59.519Z,44.40
2019-01-23T17:12:09.393Z,45.20
2019-01-23T17:17:14.425Z,44.30
2019-01-23T17:22:21.064Z,44.33
2019-01-23T17:27:28.868Z,43.17
2019-01-23T17:32:36.224Z,42.33
2019-01-23T17:37:43.025Z,44.30
2019-01-23T17:42:51.951Z,40.63
2019-01-23T17:47:59.301Z,43.23
2019-01-23T17:53:12.335Z,41.90
2019-01-23T17:58:19.327Z,41.83
2019-01-23T18:03:26.884Z,45.27
2019-01-23T18:08:33.915Z,47.10
2019-01-23T18:13:40.157Z,43.70
2019-01-23T18:18:48.242Z,42.97
2019-01-23T18:23:56.149Z,42.80
2019-01-23T18:29:03.341Z,43.67
2019-01-23T18:34:33.774Z,46.47
2019-01-23T18:40:04.603Z,42.10
2019-01-23T18:45:44.083Z,43.10
2019-01-23T18:51:09.893Z,41.67
2019-01-23T18:56:18.449Z,44.00
2019-01-23T19:01:24.442Z,43.90
2019-01-23T19:06:30.769Z,40.73
2019-01-23T19:11:38.812Z,48.07
2019-01-23T19:16:56.128Z,43.93
2019-01-23T19:22:05.122Z,45.53
2019-01-23T19:27:13.657Z,43.97
2019-01-23T19:32:20.970Z,42.30
2019-01-23T19:37:28.186Z,41.80
2019-01-23T19:42:35.162Z,44.30
2019-01-23T19:47:42.631Z,42.77
2019-01-23T19:52:52.150Z,42.13
2019-01-23T19:57:58.767Z,43.87
2019-01-23T20:03:05.547Z,44.60
2019-01-23T20:08:11.112Z,46.17
2019-01-23T20:13:17.387Z,47.83
2019-01-23T20:24:26.433Z,44.60
2019-01-23T20:29:34.815Z,45.83
2019-01-23T20:34:41.331Z,46.20
2019-01-23T20:39:50.371Z,46.53
2019-01-23T20:44:56.402Z,45.13
2019-01-23T20:50:02.094Z,46.20
2019-01-23T20:55:07.288Z,47.60
2019-01-23T21:00:16.278Z,46.07
2019-01-23T21:05:22.140Z,46.83
2019-01-23T21:10:29.533Z,45.17
2019-01-23T21:15:35.633Z,48.90
2019-01-23T21:20:44.177Z,45.60
2019-01-23T21:25:50.179Z,50.90
2019-01-23T21:30:57.462Z,47.33
2019-01-23T21:36:03.499Z,44.63
2019-01-23T21:41:10.166Z,46.43
2019-01-23T21:46:15.915Z,48.97
2019-01-23T21:51:22.504Z,52.27
2019-01-23T21:56:28.494Z,46.17
2019-01-23T22:01:35.129Z,48.07
2019-01-23T22:06:40.910Z,47.40
2019-01-23T22:11:46.617Z,49.90
2019-01-23T22:16:53.881Z,48.37
2019-01-23T22:21:59.609Z,48.27
2019-01-23T22:27:05.561Z,51.13
2019-01-23T22:32:15.332Z,44.73
2019-01-23T22:37:21.706Z,50.53
2019-01-23T22:42:27.288Z,46.60
2019-01-23T22:47:34.196Z,51.77
2019-01-23T22:52:58.100Z,50.77
2019-01-23T22:58:05.581Z,49.20
2019-01-23T23:03:12.570Z,47.53
2019-01-23T23:08:19.159Z,48.30
2019-01-23T23:13:27.188Z,47.33
2019-01-23T23:18:33.698Z,49.77
2019-01-23T23:23:40.334Z,53.90
2019-01-23T23:28:45.697Z,53.43
2019-01-23T23:33:52.524Z,50.07
2019-01-23T23:38:58.770Z,49.10
2019-01-23T23:44:04.620Z,50.67
2019-01-23T23:49:11.301Z,49.93
2019-01-23T23:54:17.549Z,48.67
2019-01-23T23:59:28.153Z,49.87
